Mingus, Texas
Current Conditions -  °F | °C
As of 2:35 AM on Saturday 20 Dec 2014 (Local Time) from KSEP Reporting Station
Overcast Overcast  
Wind Chill: 44°   Ceiling: 1400
Heat Index: 44°   Visibility: 7mi
Dew Point: 41°   Wind: 0mph
Humidity: 90%   Direction: NA
Pressure: 30.23"   Gusts: NA
Location:  32.54°N, 98.42°W
Report Text: KSEP 200835Z AUTO 00000KT 7SM OVC014 07/05 A3023 RMK AO2 T00680052
Loading
Personal Weather Stations






























Interactive Weather Map New forecast layout! Learn more

10-Day Weather Forecast

Advertisements
Track Severe Weather on mobile